Nashville, Tennessee
Traffic Map
Current Weather Conditions
Nashville, Tennessee
Broken Clouds
Broken Clouds
82°
Feels Like: 84°
Wind Chill: 82° Ceiling: 25000
Heat Index: 84° Visibility: 10mi
Dew Point: 67° Wind: 9mph
Humidity: 60% Direction: 290° (WNW)
Pressure: 29.99in Gusts: 24mph
Raw Report DataKBNA 211553Z 29008G21KT 250V310 10SM FEW040 SCT150 BKN250 28/19 A2999 RMK AO2 SLP147 T02780194
Traffic Incident Summary
Active as of:
Severity:
Category:
InformationThere was an issue retrieving the traffic information for this location. Please try a different location or try again shortly.
Advertisements
Track Severe Weather on mobile